Etusivu
METAR-TAF:

METAR-TAF

Lentoasemat :

Mthatha, Etelä-Afrikka

Leveyspiiri: 31-32-47S, Pituuspiiri: 028-40-31E, korkeus merenpinnasta: 740 m

Tämänhetkinen sää

Tämä raportti tehtiin 41 minuuttia sitten, kello 01.00 UTC
Tuuli 2 kn lännestä/luoteesta
Lämpötila 13°C
Kosteus 88%
Ilmanpaine 1018 hPa

METAR: FAUT 200100Z AUTO 29002KT //// // ////// 13/11 Q1018

Aika: 03:41 (01:41 UTC)

Sääennuste

Tämä raportti tehtiin 16 tuntia ja 41 minuuttia sitten, kello 09.00 UTC
Ennuste voimassa 19. päivästä klo 10 UTC - 19. päivään klo 18 UTC
Tuuli 7 kn etelästä/kaakosta
Näkyvyys 10 km tai enemmän
Hajonneita pilviä 2000 ft:n korkeudessa
Tulossa
19. päivästä klo 16 UTC - 19. päivään klo 18 UTC
Tuuli 3 kn eri suunnista
Hajonneita pilviä 1500 ft:n korkeudessa

TAF: FAUT 190900Z 1910/1918 16007KT 9999 BKN020 TX20/1911Z TN14/1918Z BECMG 1916/1918 VRB03KT BKN015

Säähavainnot ja -ennusteet yli 4000 lentoasemalta (METAR- ja TAF-raportit).

Käytössä olevat sääasemat on merkitty karttaan keltaisilla ja punaisilla pisteillä.

Aseta hiiri pisteen päälle nähdäksesi sääaseman nimen.

Klikkaa sitten nähdäksesi säähavainnot ja -ennusteet.

Kartan vaihtaminen: klikkaa mustalla rastilla varustettuja vihreitä pisteitä, niin voit zoomata sisään; viivalla varustettua vihreää pistettä, niin voit zoomata ulos tai vihreitä nuolia, niin pääset viereisille kartoille.


METAR-TAF: